sensor_id;sensor_type;location;lat;lon;timestamp;P1;durP1;ratioP1;P2;durP2;ratioP2
6031;SDS011;3044;43.232;27.972;2023-03-01T00:00:05;7.33;;;6.20;;
6031;SDS011;3044;43.232;27.972;2023-03-01T00:02:33;7.60;;;6.33;;
6031;SDS011;3044;43.232;27.972;2023-03-01T00:05:01;6.63;;;6.00;;
6031;SDS011;3044;43.232;27.972;2023-03-01T00:07:29;8.30;;;6.67;;
6031;SDS011;3044;43.232;27.972;2023-03-01T00:09:56;7.60;;;6.33;;
6031;SDS011;3044;43.232;27.972;2023-03-01T00:12:24;8.90;;;6.93;;
6031;SDS011;3044;43.232;27.972;2023-03-01T00:14:51;8.80;;;7.60;;
6031;SDS011;3044;43.232;27.972;2023-03-01T00:17:18;8.83;;;7.10;;
6031;SDS011;3044;43.232;27.972;2023-03-01T00:19:45;12.23;;;7.57;;
6031;SDS011;3044;43.232;27.972;2023-03-01T00:22:12;8.17;;;7.33;;
6031;SDS011;3044;43.232;27.972;2023-03-01T00:24:41;12.30;;;7.30;;
6031;SDS011;3044;43.232;27.972;2023-03-01T00:27:08;8.37;;;7.33;;
6031;SDS011;3044;43.232;27.972;2023-03-01T00:29:35;8.33;;;7.37;;
6031;SDS011;3044;43.232;27.972;2023-03-01T00:32:02;11.80;;;7.77;;
6031;SDS011;3044;43.232;27.972;2023-03-01T00:34:29;10.77;;;7.40;;
6031;SDS011;3044;43.232;27.972;2023-03-01T00:36:56;11.50;;;7.23;;
6031;SDS011;3044;43.232;27.972;2023-03-01T00:39:30;7.70;;;6.90;;
6031;SDS011;3044;43.232;27.972;2023-03-01T00:41:59;10.83;;;5.57;;
6031;SDS011;3044;43.232;27.972;2023-03-01T00:44:26;7.43;;;5.93;;
6031;SDS011;3044;43.232;27.972;2023-03-01T00:46:54;9.53;;;6.90;;
6031;SDS011;3044;43.232;27.972;2023-03-01T00:49:21;7.13;;;5.83;;
6031;SDS011;3044;43.232;27.972;2023-03-01T00:51:49;9.70;;;5.97;;
6031;SDS011;3044;43.232;27.972;2023-03-01T00:54:16;8.37;;;5.57;;
6031;SDS011;3044;43.232;27.972;2023-03-01T00:56:43;7.60;;;6.40;;
6031;SDS011;3044;43.232;27.972;2023-03-01T00:59:12;8.63;;;5.80;;
6031;SDS011;3044;43.232;27.972;2023-03-01T01:01:39;7.27;;;5.20;;
6031;SDS011;3044;43.232;27.972;2023-03-01T01:04:07;6.77;;;5.47;;
6031;SDS011;3044;43.232;27.972;2023-03-01T01:06:37;8.07;;;5.57;;
6031;SDS011;3044;43.232;27.972;2023-03-01T01:09:08;9.47;;;6.10;;
6031;SDS011;3044;43.232;27.972;2023-03-01T01:11:42;9.17;;;6.67;;
6031;SDS011;3044;43.232;27.972;2023-03-01T01:14:12;7.63;;;6.00;;
6031;SDS011;3044;43.232;27.972;2023-03-01T01:16:39;9.07;;;6.53;;
6031;SDS011;3044;43.232;27.972;2023-03-01T01:19:07;12.80;;;6.90;;
6031;SDS011;3044;43.232;27.972;2023-03-01T01:21:35;12.20;;;7.10;;
6031;SDS011;3044;43.232;27.972;2023-03-01T01:24:02;9.70;;;7.47;;
6031;SDS011;3044;43.232;27.972;2023-03-01T01:26:30;9.73;;;7.70;;
6031;SDS011;3044;43.232;27.972;2023-03-01T01:28:59;11.87;;;7.47;;
6031;SDS011;3044;43.232;27.972;2023-03-01T01:31:29;13.90;;;8.00;;
6031;SDS011;3044;43.232;27.972;2023-03-01T01:33:57;11.53;;;7.53;;
6031;SDS011;3044;43.232;27.972;2023-03-01T01:36:26;10.17;;;8.13;;
6031;SDS011;3044;43.232;27.972;2023-03-01T01:38:54;13.27;;;8.33;;
6031;SDS011;3044;43.232;27.972;2023-03-01T01:41:21;16.40;;;8.73;;
6031;SDS011;3044;43.232;27.972;2023-03-01T01:44:09;12.37;;;7.93;;
6031;SDS011;3044;43.232;27.972;2023-03-01T01:46:41;15.50;;;8.73;;
6031;SDS011;3044;43.232;27.972;2023-03-01T01:49:16;10.47;;;8.60;;
6031;SDS011;3044;43.232;27.972;2023-03-01T01:51:49;11.10;;;9.23;;
6031;SDS011;3044;43.232;27.972;2023-03-01T01:54:22;14.27;;;9.90;;
6031;SDS011;3044;43.232;27.972;2023-03-01T01:56:55;17.60;;;11.43;;
6031;SDS011;3044;43.232;27.972;2023-03-01T01:59:26;13.03;;;9.70;;
6031;SDS011;3044;43.232;27.972;2023-03-01T02:01:58;13.60;;;10.20;;
6031;SDS011;3044;43.232;27.972;2023-03-01T02:04:28;15.67;;;10.77;;
6031;SDS011;3044;43.232;27.972;2023-03-01T02:06:57;17.07;;;11.03;;
6031;SDS011;3044;43.232;27.972;2023-03-01T02:09:28;13.40;;;10.70;;
6031;SDS011;3044;43.232;27.972;2023-03-01T02:11:57;15.20;;;10.90;;
6031;SDS011;3044;43.232;27.972;2023-03-01T02:14:25;15.80;;;10.50;;
6031;SDS011;3044;43.232;27.972;2023-03-01T02:16:52;13.60;;;12.07;;
6031;SDS011;3044;43.232;27.972;2023-03-01T02:19:24;17.53;;;13.00;;
6031;SDS011;3044;43.232;27.972;2023-03-01T02:22:06;17.30;;;11.60;;
6031;SDS011;3044;43.232;27.972;2023-03-01T02:24:47;17.80;;;13.37;;
6031;SDS011;3044;43.232;27.972;2023-03-01T02:27:26;32.30;;;14.20;;
6031;SDS011;3044;43.232;27.972;2023-03-01T02:30:03;17.27;;;12.17;;
6031;SDS011;3044;43.232;27.972;2023-03-01T02:32:31;18.37;;;12.20;;
6031;SDS011;3044;43.232;27.972;2023-03-01T02:34:58;17.50;;;12.53;;
6031;SDS011;3044;43.232;27.972;2023-03-01T02:37:25;18.97;;;13.43;;
6031;SDS011;3044;43.232;27.972;2023-03-01T02:39:55;16.60;;;12.53;;
6031;SDS011;3044;43.232;27.972;2023-03-01T02:42:27;21.83;;;13.97;;
6031;SDS011;3044;43.232;27.972;2023-03-01T02:44:58;22.83;;;14.70;;
6031;SDS011;3044;43.232;27.972;2023-03-01T02:47:26;14.27;;;12.50;;
6031;SDS011;3044;43.232;27.972;2023-03-01T02:49:54;22.60;;;13.80;;
6031;SDS011;3044;43.232;27.972;2023-03-01T02:52:27;21.07;;;13.90;;
6031;SDS011;3044;43.232;27.972;2023-03-01T02:55:01;21.80;;;13.00;;
6031;SDS011;3044;43.232;27.972;2023-03-01T02:57:31;23.40;;;15.07;;
6031;SDS011;3044;43.232;27.972;2023-03-01T03:00:02;20.27;;;13.20;;
6031;SDS011;3044;43.232;27.972;2023-03-01T03:02:34;22.80;;;13.13;;
6031;SDS011;3044;43.232;27.972;2023-03-01T03:05:07;23.20;;;15.03;;
6031;SDS011;3044;43.232;27.972;2023-03-01T03:07:36;21.87;;;13.97;;
6031;SDS011;3044;43.232;27.972;2023-03-01T03:10:06;20.70;;;13.97;;
6031;SDS011;3044;43.232;27.972;2023-03-01T03:12:36;23.87;;;14.67;;
6031;SDS011;3044;43.232;27.972;2023-03-01T03:15:04;21.33;;;15.70;;
6031;SDS011;3044;43.232;27.972;2023-03-01T03:17:35;19.63;;;13.83;;
6031;SDS011;3044;43.232;27.972;2023-03-01T03:20:03;17.43;;;13.43;;
6031;SDS011;3044;43.232;27.972;2023-03-01T03:22:36;22.17;;;15.17;;
6031;SDS011;3044;43.232;27.972;2023-03-01T03:25:03;22.80;;;15.30;;
6031;SDS011;3044;43.232;27.972;2023-03-01T03:27:31;18.97;;;14.03;;
6031;SDS011;3044;43.232;27.972;2023-03-01T03:29:58;31.00;;;18.00;;
6031;SDS011;3044;43.232;27.972;2023-03-01T03:32:25;25.60;;;16.07;;
6031;SDS011;3044;43.232;27.972;2023-03-01T03:34:53;26.20;;;15.80;;
6031;SDS011;3044;43.232;27.972;2023-03-01T03:37:21;25.87;;;16.50;;
6031;SDS011;3044;43.232;27.972;2023-03-01T03:40:05;26.13;;;17.00;;
6031;SDS011;3044;43.232;27.972;2023-03-01T03:42:40;26.20;;;17.53;;
6031;SDS011;3044;43.232;27.972;2023-03-01T03:45:08;26.60;;;16.40;;
6031;SDS011;3044;43.232;27.972;2023-03-01T03:50:22;30.10;;;17.23;;
6031;SDS011;3044;43.232;27.972;2023-03-01T03:52:49;23.47;;;15.93;;
6031;SDS011;3044;43.232;27.972;2023-03-01T03:55:16;33.03;;;15.47;;
6031;SDS011;3044;43.232;27.972;2023-03-01T04:00:32;24.90;;;16.80;;
6031;SDS011;3044;43.232;27.972;2023-03-01T04:03:18;25.23;;;17.07;;
6031;SDS011;3044;43.232;27.972;2023-03-01T04:05:48;30.73;;;18.13;;
6031;SDS011;3044;43.232;27.972;2023-03-01T04:08:18;27.60;;;16.67;;
6031;SDS011;3044;43.232;27.972;2023-03-01T04:10:47;26.77;;;16.20;;
6031;SDS011;3044;43.232;27.972;2023-03-01T04:13:16;24.90;;;17.27;;
6031;SDS011;3044;43.232;27.972;2023-03-01T04:15:45;25.73;;;16.40;;
6031;SDS011;3044;43.232;27.972;2023-03-01T04:18:13;27.73;;;16.07;;
6031;SDS011;3044;43.232;27.972;2023-03-01T04:20:41;29.17;;;17.30;;
6031;SDS011;3044;43.232;27.972;2023-03-01T04:23:12;21.47;;;15.30;;
6031;SDS011;3044;43.232;27.972;2023-03-01T04:25:41;25.57;;;16.17;;
6031;SDS011;3044;43.232;27.972;2023-03-01T04:28:11;27.47;;;16.67;;
6031;SDS011;3044;43.232;27.972;2023-03-01T04:30:39;22.20;;;16.83;;
6031;SDS011;3044;43.232;27.972;2023-03-01T04:33:06;24.97;;;16.67;;
6031;SDS011;3044;43.232;27.972;2023-03-01T04:35:35;28.93;;;16.07;;
6031;SDS011;3044;43.232;27.972;2023-03-01T04:38:03;31.43;;;15.40;;
6031;SDS011;3044;43.232;27.972;2023-03-01T04:40:32;26.37;;;15.50;;
6031;SDS011;3044;43.232;27.972;2023-03-01T04:42:59;26.70;;;16.23;;
6031;SDS011;3044;43.232;27.972;2023-03-01T04:45:26;24.93;;;15.50;;
6031;SDS011;3044;43.232;27.972;2023-03-01T04:47:53;23.67;;;15.67;;
6031;SDS011;3044;43.232;27.972;2023-03-01T04:50:23;31.77;;;16.37;;
6031;SDS011;3044;43.232;27.972;2023-03-01T04:52:51;25.10;;;16.73;;
6031;SDS011;3044;43.232;27.972;2023-03-01T04:55:18;27.27;;;15.97;;
6031;SDS011;3044;43.232;27.972;2023-03-01T04:57:47;21.93;;;15.50;;
6031;SDS011;3044;43.232;27.972;2023-03-01T05:00:14;25.70;;;13.60;;
6031;SDS011;3044;43.232;27.972;2023-03-01T05:02:49;22.10;;;15.20;;
6031;SDS011;3044;43.232;27.972;2023-03-01T05:05:19;23.07;;;16.00;;
6031;SDS011;3044;43.232;27.972;2023-03-01T05:07:51;19.13;;;14.17;;
6031;SDS011;3044;43.232;27.972;2023-03-01T05:10:19;22.00;;;15.20;;
6031;SDS011;3044;43.232;27.972;2023-03-01T05:12:48;22.50;;;16.07;;
6031;SDS011;3044;43.232;27.972;2023-03-01T05:15:17;19.37;;;14.87;;
6031;SDS011;3044;43.232;27.972;2023-03-01T05:17:47;24.87;;;16.10;;
6031;SDS011;3044;43.232;27.972;2023-03-01T05:20:14;25.80;;;15.10;;
6031;SDS011;3044;43.232;27.972;2023-03-01T05:22:42;25.10;;;16.07;;
6031;SDS011;3044;43.232;27.972;2023-03-01T05:25:09;21.97;;;15.63;;
6031;SDS011;3044;43.232;27.972;2023-03-01T05:27:39;29.57;;;17.60;;
6031;SDS011;3044;43.232;27.972;2023-03-01T05:30:08;28.30;;;16.40;;
6031;SDS011;3044;43.232;27.972;2023-03-01T05:32:40;23.90;;;16.13;;
6031;SDS011;3044;43.232;27.972;2023-03-01T05:35:10;29.03;;;15.40;;
6031;SDS011;3044;43.232;27.972;2023-03-01T05:37:39;22.93;;;15.87;;
6031;SDS011;3044;43.232;27.972;2023-03-01T05:40:10;27.90;;;16.17;;
6031;SDS011;3044;43.232;27.972;2023-03-01T05:42:41;25.60;;;15.67;;
6031;SDS011;3044;43.232;27.972;2023-03-01T05:45:11;26.07;;;17.90;;
6031;SDS011;3044;43.232;27.972;2023-03-01T05:47:39;24.67;;;16.80;;
6031;SDS011;3044;43.232;27.972;2023-03-01T05:50:10;21.67;;;14.87;;
6031;SDS011;3044;43.232;27.972;2023-03-01T05:52:38;26.23;;;16.70;;
6031;SDS011;3044;43.232;27.972;2023-03-01T05:55:06;20.97;;;15.50;;
6031;SDS011;3044;43.232;27.972;2023-03-01T05:57:34;21.90;;;16.23;;
6031;SDS011;3044;43.232;27.972;2023-03-01T06:00:01;24.80;;;16.93;;
6031;SDS011;3044;43.232;27.972;2023-03-01T06:02:30;23.90;;;15.60;;
6031;SDS011;3044;43.232;27.972;2023-03-01T06:04:57;22.80;;;16.93;;
6031;SDS011;3044;43.232;27.972;2023-03-01T06:07:24;25.50;;;15.67;;
6031;SDS011;3044;43.232;27.972;2023-03-01T06:09:51;24.27;;;16.00;;
6031;SDS011;3044;43.232;27.972;2023-03-01T06:12:19;23.80;;;17.30;;
6031;SDS011;3044;43.232;27.972;2023-03-01T06:14:46;25.70;;;15.93;;
6031;SDS011;3044;43.232;27.972;2023-03-01T06:17:13;24.30;;;16.47;;
6031;SDS011;3044;43.232;27.972;2023-03-01T06:19:42;22.87;;;15.67;;
6031;SDS011;3044;43.232;27.972;2023-03-01T06:22:09;21.87;;;15.30;;
6031;SDS011;3044;43.232;27.972;2023-03-01T06:24:36;31.10;;;17.37;;
6031;SDS011;3044;43.232;27.972;2023-03-01T06:27:03;25.73;;;17.00;;
6031;SDS011;3044;43.232;27.972;2023-03-01T06:29:30;25.67;;;16.10;;
6031;SDS011;3044;43.232;27.972;2023-03-01T06:31:57;22.53;;;16.63;;
6031;SDS011;3044;43.232;27.972;2023-03-01T06:34:24;32.00;;;17.43;;
6031;SDS011;3044;43.232;27.972;2023-03-01T06:36:53;28.70;;;17.07;;
6031;SDS011;3044;43.232;27.972;2023-03-01T06:39:20;25.67;;;15.30;;
6031;SDS011;3044;43.232;27.972;2023-03-01T06:41:47;22.87;;;15.90;;
6031;SDS011;3044;43.232;27.972;2023-03-01T06:44:14;21.53;;;14.93;;
6031;SDS011;3044;43.232;27.972;2023-03-01T06:46:42;25.67;;;17.07;;
6031;SDS011;3044;43.232;27.972;2023-03-01T06:49:09;22.50;;;15.67;;
6031;SDS011;3044;43.232;27.972;2023-03-01T06:51:36;29.83;;;17.57;;
6031;SDS011;3044;43.232;27.972;2023-03-01T06:54:04;22.47;;;16.13;;
6031;SDS011;3044;43.232;27.972;2023-03-01T06:56:32;26.07;;;15.67;;
6031;SDS011;3044;43.232;27.972;2023-03-01T06:58:59;23.07;;;17.13;;
6031;SDS011;3044;43.232;27.972;2023-03-01T07:01:27;24.33;;;17.20;;
6031;SDS011;3044;43.232;27.972;2023-03-01T07:03:55;22.10;;;15.40;;
6031;SDS011;3044;43.232;27.972;2023-03-01T07:06:23;35.47;;;18.67;;
6031;SDS011;3044;43.232;27.972;2023-03-01T07:08:50;29.90;;;16.53;;
6031;SDS011;3044;43.232;27.972;2023-03-01T07:11:18;33.53;;;20.40;;
6031;SDS011;3044;43.232;27.972;2023-03-01T07:13:45;28.10;;;17.17;;
6031;SDS011;3044;43.232;27.972;2023-03-01T07:16:13;30.00;;;19.97;;
6031;SDS011;3044;43.232;27.972;2023-03-01T07:18:40;28.10;;;17.47;;
6031;SDS011;3044;43.232;27.972;2023-03-01T07:21:08;26.80;;;18.73;;
6031;SDS011;3044;43.232;27.972;2023-03-01T07:23:38;29.33;;;18.70;;
6031;SDS011;3044;43.232;27.972;2023-03-01T07:26:05;26.27;;;17.27;;
6031;SDS011;3044;43.232;27.972;2023-03-01T07:28:34;26.53;;;16.57;;
6031;SDS011;3044;43.232;27.972;2023-03-01T07:31:04;28.80;;;19.50;;
6031;SDS011;3044;43.232;27.972;2023-03-01T07:33:31;26.37;;;18.37;;
6031;SDS011;3044;43.232;27.972;2023-03-01T07:35:59;27.97;;;17.53;;
6031;SDS011;3044;43.232;27.972;2023-03-01T07:38:28;25.60;;;17.53;;
6031;SDS011;3044;43.232;27.972;2023-03-01T07:40:57;33.10;;;18.00;;
6031;SDS011;3044;43.232;27.972;2023-03-01T07:43:25;23.73;;;17.63;;
6031;SDS011;3044;43.232;27.972;2023-03-01T07:45:54;32.23;;;18.43;;
6031;SDS011;3044;43.232;27.972;2023-03-01T07:48:24;24.43;;;17.93;;
6031;SDS011;3044;43.232;27.972;2023-03-01T07:50:51;25.17;;;16.77;;
6031;SDS011;3044;43.232;27.972;2023-03-01T07:53:18;31.43;;;18.83;;
6031;SDS011;3044;43.232;27.972;2023-03-01T07:55:45;35.03;;;18.67;;
6031;SDS011;3044;43.232;27.972;2023-03-01T07:58:12;32.33;;;18.93;;
6031;SDS011;3044;43.232;27.972;2023-03-01T08:00:40;35.67;;;21.73;;
6031;SDS011;3044;43.232;27.972;2023-03-01T08:03:08;35.60;;;20.60;;
6031;SDS011;3044;43.232;27.972;2023-03-01T08:05:35;26.10;;;19.30;;
6031;SDS011;3044;43.232;27.972;2023-03-01T08:08:04;27.20;;;17.50;;
6031;SDS011;3044;43.232;27.972;2023-03-01T08:10:31;26.97;;;16.90;;
6031;SDS011;3044;43.232;27.972;2023-03-01T08:12:59;25.83;;;16.60;;
6031;SDS011;3044;43.232;27.972;2023-03-01T08:15:26;27.13;;;18.10;;
6031;SDS011;3044;43.232;27.972;2023-03-01T08:17:53;25.87;;;17.00;;
6031;SDS011;3044;43.232;27.972;2023-03-01T08:20:21;26.43;;;16.50;;
6031;SDS011;3044;43.232;27.972;2023-03-01T08:22:48;25.20;;;16.57;;
6031;SDS011;3044;43.232;27.972;2023-03-01T08:25:16;26.80;;;17.67;;
6031;SDS011;3044;43.232;27.972;2023-03-01T08:27:43;23.30;;;17.00;;
6031;SDS011;3044;43.232;27.972;2023-03-01T08:30:11;29.73;;;16.50;;
6031;SDS011;3044;43.232;27.972;2023-03-01T08:32:38;27.03;;;18.87;;
6031;SDS011;3044;43.232;27.972;2023-03-01T08:35:06;26.97;;;19.90;;
6031;SDS011;3044;43.232;27.972;2023-03-01T08:37:35;23.50;;;16.70;;
6031;SDS011;3044;43.232;27.972;2023-03-01T08:40:03;28.43;;;19.47;;
6031;SDS011;3044;43.232;27.972;2023-03-01T08:42:32;32.47;;;21.60;;
6031;SDS011;3044;43.232;27.972;2023-03-01T08:44:59;31.17;;;19.93;;
6031;SDS011;3044;43.232;27.972;2023-03-01T08:47:26;26.80;;;18.77;;
6031;SDS011;3044;43.232;27.972;2023-03-01T08:49:54;22.13;;;16.57;;
6031;SDS011;3044;43.232;27.972;2023-03-01T08:52:21;23.97;;;17.50;;
6031;SDS011;3044;43.232;27.972;2023-03-01T08:54:51;27.23;;;17.73;;
6031;SDS011;3044;43.232;27.972;2023-03-01T08:57:18;30.17;;;17.00;;
6031;SDS011;3044;43.232;27.972;2023-03-01T08:59:45;27.63;;;18.33;;
6031;SDS011;3044;43.232;27.972;2023-03-01T09:02:14;23.83;;;17.70;;
6031;SDS011;3044;43.232;27.972;2023-03-01T09:04:45;27.97;;;17.83;;
6031;SDS011;3044;43.232;27.972;2023-03-01T09:07:12;26.00;;;18.50;;
6031;SDS011;3044;43.232;27.972;2023-03-01T09:09:40;31.23;;;19.93;;
6031;SDS011;3044;43.232;27.972;2023-03-01T09:12:08;30.47;;;19.97;;
6031;SDS011;3044;43.232;27.972;2023-03-01T09:14:35;26.50;;;18.93;;
6031;SDS011;3044;43.232;27.972;2023-03-01T09:17:04;30.77;;;19.37;;
6031;SDS011;3044;43.232;27.972;2023-03-01T09:19:31;29.47;;;19.87;;
6031;SDS011;3044;43.232;27.972;2023-03-01T09:21:58;29.43;;;18.87;;
6031;SDS011;3044;43.232;27.972;2023-03-01T09:24:25;30.13;;;20.60;;
6031;SDS011;3044;43.232;27.972;2023-03-01T09:26:53;28.93;;;18.90;;
6031;SDS011;3044;43.232;27.972;2023-03-01T09:29:22;27.63;;;19.50;;
6031;SDS011;3044;43.232;27.972;2023-03-01T09:31:51;35.53;;;19.67;;
6031;SDS011;3044;43.232;27.972;2023-03-01T09:34:20;30.23;;;21.53;;
6031;SDS011;3044;43.232;27.972;2023-03-01T09:36:48;31.30;;;20.10;;
6031;SDS011;3044;43.232;27.972;2023-03-01T09:39:16;39.00;;;18.83;;
6031;SDS011;3044;43.232;27.972;2023-03-01T09:41:46;28.17;;;16.57;;
6031;SDS011;3044;43.232;27.972;2023-03-01T09:44:32;25.97;;;18.40;;
6031;SDS011;3044;43.232;27.972;2023-03-01T09:47:04;27.20;;;17.37;;
6031;SDS011;3044;43.232;27.972;2023-03-01T09:49:36;25.43;;;17.13;;
6031;SDS011;3044;43.232;27.972;2023-03-01T09:52:16;24.97;;;16.77;;
6031;SDS011;3044;43.232;27.972;2023-03-01T09:54:52;25.20;;;17.10;;
6031;SDS011;3044;43.232;27.972;2023-03-01T09:57:24;22.23;;;15.63;;
6031;SDS011;3044;43.232;27.972;2023-03-01T10:00:00;17.90;;;14.30;;
6031;SDS011;3044;43.232;27.972;2023-03-01T10:02:38;28.87;;;13.70;;
6031;SDS011;3044;43.232;27.972;2023-03-01T10:05:13;22.13;;;14.10;;
6031;SDS011;3044;43.232;27.972;2023-03-01T10:07:59;16.30;;;12.17;;
6031;SDS011;3044;43.232;27.972;2023-03-01T10:10:33;22.73;;;12.33;;
6031;SDS011;3044;43.232;27.972;2023-03-01T10:13:02;24.53;;;11.70;;
6031;SDS011;3044;43.232;27.972;2023-03-01T10:15:39;22.70;;;11.13;;
6031;SDS011;3044;43.232;27.972;2023-03-01T10:18:11;15.73;;;9.80;;
6031;SDS011;3044;43.232;27.972;2023-03-01T10:20:43;12.80;;;9.30;;
6031;SDS011;3044;43.232;27.972;2023-03-01T10:23:17;14.00;;;10.13;;
6031;SDS011;3044;43.232;27.972;2023-03-01T10:25:47;41.87;;;11.10;;
6031;SDS011;3044;43.232;27.972;2023-03-01T10:28:30;17.93;;;11.40;;
6031;SDS011;3044;43.232;27.972;2023-03-01T10:31:07;14.47;;;10.40;;
6031;SDS011;3044;43.232;27.972;2023-03-01T10:33:38;25.57;;;12.57;;
6031;SDS011;3044;43.232;27.972;2023-03-01T10:36:07;17.43;;;12.17;;
6031;SDS011;3044;43.232;27.972;2023-03-01T10:38:47;18.47;;;12.17;;
6031;SDS011;3044;43.232;27.972;2023-03-01T10:41:17;23.33;;;11.60;;
6031;SDS011;3044;43.232;27.972;2023-03-01T10:43:45;15.87;;;11.03;;
6031;SDS011;3044;43.232;27.972;2023-03-01T10:46:28;24.57;;;13.37;;
6031;SDS011;3044;43.232;27.972;2023-03-01T10:49:07;18.03;;;12.10;;
6031;SDS011;3044;43.232;27.972;2023-03-01T10:51:45;17.60;;;12.70;;
6031;SDS011;3044;43.232;27.972;2023-03-01T10:54:18;16.37;;;12.37;;
6031;SDS011;3044;43.232;27.972;2023-03-01T10:56:47;24.10;;;13.90;;
6031;SDS011;3044;43.232;27.972;2023-03-01T10:59:26;16.20;;;12.57;;
6031;SDS011;3044;43.232;27.972;2023-03-01T11:02:02;16.80;;;12.50;;
6031;SDS011;3044;43.232;27.972;2023-03-01T11:04:46;23.63;;;14.57;;
6031;SDS011;3044;43.232;27.972;2023-03-01T11:07:24;18.00;;;12.27;;
6031;SDS011;3044;43.232;27.972;2023-03-01T11:09:51;25.07;;;15.27;;
6031;SDS011;3044;43.232;27.972;2023-03-01T11:12:19;15.43;;;12.30;;
6031;SDS011;3044;43.232;27.972;2023-03-01T11:14:48;20.10;;;13.60;;
6031;SDS011;3044;43.232;27.972;2023-03-01T11:17:20;23.00;;;13.70;;
6031;SDS011;3044;43.232;27.972;2023-03-01T11:19:59;17.17;;;12.67;;
6031;SDS011;3044;43.232;27.972;2023-03-01T11:22:28;17.93;;;13.17;;
6031;SDS011;3044;43.232;27.972;2023-03-01T11:24:59;15.53;;;13.00;;
6031;SDS011;3044;43.232;27.972;2023-03-01T11:27:28;17.03;;;13.27;;
6031;SDS011;3044;43.232;27.972;2023-03-01T11:29:58;15.70;;;10.90;;
6031;SDS011;3044;43.232;27.972;2023-03-01T11:32:33;15.03;;;10.80;;
6031;SDS011;3044;43.232;27.972;2023-03-01T11:35:08;14.03;;;10.67;;
6031;SDS011;3044;43.232;27.972;2023-03-01T11:37:40;14.37;;;10.60;;
6031;SDS011;3044;43.232;27.972;2023-03-01T11:40:12;16.17;;;10.70;;
6031;SDS011;3044;43.232;27.972;2023-03-01T11:42:51;11.50;;;10.23;;
6031;SDS011;3044;43.232;27.972;2023-03-01T11:45:26;15.20;;;10.87;;
6031;SDS011;3044;43.232;27.972;2023-03-01T11:48:05;12.43;;;9.30;;
6031;SDS011;3044;43.232;27.972;2023-03-01T11:50:47;12.43;;;9.77;;
6031;SDS011;3044;43.232;27.972;2023-03-01T11:53:30;10.30;;;9.30;;
6031;SDS011;3044;43.232;27.972;2023-03-01T11:56:16;17.10;;;11.10;;
6031;SDS011;3044;43.232;27.972;2023-03-01T11:59:13;22.93;;;11.83;;
6031;SDS011;3044;43.232;27.972;2023-03-01T12:02:09;13.13;;;9.50;;
6031;SDS011;3044;43.232;27.972;2023-03-01T12:08:12;13.00;;;10.13;;
6031;SDS011;3044;43.232;27.972;2023-03-01T12:10:48;10.63;;;8.70;;
6031;SDS011;3044;43.232;27.972;2023-03-01T12:13:36;11.67;;;10.27;;
6031;SDS011;3044;43.232;27.972;2023-03-01T12:16:23;14.87;;;10.90;;
6031;SDS011;3044;43.232;27.972;2023-03-01T12:19:07;12.80;;;10.40;;
6031;SDS011;3044;43.232;27.972;2023-03-01T12:22:01;11.97;;;10.70;;
6031;SDS011;3044;43.232;27.972;2023-03-01T12:27:45;11.53;;;9.60;;
6031;SDS011;3044;43.232;27.972;2023-03-01T12:30:28;11.07;;;9.60;;
6031;SDS011;3044;43.232;27.972;2023-03-01T12:33:10;14.93;;;9.30;;
6031;SDS011;3044;43.232;27.972;2023-03-01T12:35:51;14.73;;;8.87;;
6031;SDS011;3044;43.232;27.972;2023-03-01T12:38:37;13.20;;;8.87;;
6031;SDS011;3044;43.232;27.972;2023-03-01T12:41:13;13.83;;;8.10;;
6031;SDS011;3044;43.232;27.972;2023-03-01T12:44:01;13.03;;;8.17;;
6031;SDS011;3044;43.232;27.972;2023-03-01T12:46:44;10.00;;;8.17;;
6031;SDS011;3044;43.232;27.972;2023-03-01T12:49:19;10.10;;;8.47;;
6031;SDS011;3044;43.232;27.972;2023-03-01T12:51:51;10.07;;;8.47;;
6031;SDS011;3044;43.232;27.972;2023-03-01T12:54:25;10.37;;;7.60;;
6031;SDS011;3044;43.232;27.972;2023-03-01T12:56:56;14.10;;;9.33;;
6031;SDS011;3044;43.232;27.972;2023-03-01T12:59:28;10.20;;;8.63;;
6031;SDS011;3044;43.232;27.972;2023-03-01T13:02:03;11.40;;;7.80;;
6031;SDS011;3044;43.232;27.972;2023-03-01T13:04:43;9.77;;;7.93;;
6031;SDS011;3044;43.232;27.972;2023-03-01T13:07:23;12.80;;;8.40;;
6031;SDS011;3044;43.232;27.972;2023-03-01T13:09:56;12.77;;;8.33;;
6031;SDS011;3044;43.232;27.972;2023-03-01T13:12:44;14.63;;;9.40;;
6031;SDS011;3044;43.232;27.972;2023-03-01T13:15:25;8.40;;;7.40;;
6031;SDS011;3044;43.232;27.972;2023-03-01T13:18:03;11.57;;;7.70;;
6031;SDS011;3044;43.232;27.972;2023-03-01T13:20:51;9.93;;;8.27;;
6031;SDS011;3044;43.232;27.972;2023-03-01T13:23:26;97.20;;;55.80;;
6031;SDS011;3044;43.232;27.972;2023-03-01T13:26:02;138.07;;;75.80;;
6031;SDS011;3044;43.232;27.972;2023-03-01T13:28:45;14.30;;;10.00;;
6031;SDS011;3044;43.232;27.972;2023-03-01T13:34:48;15.40;;;7.60;;
6031;SDS011;3044;43.232;27.972;2023-03-01T13:37:21;10.57;;;8.10;;
6031;SDS011;3044;43.232;27.972;2023-03-01T13:43:25;9.37;;;8.47;;
6031;SDS011;3044;43.232;27.972;2023-03-01T13:45:57;11.50;;;7.83;;
6031;SDS011;3044;43.232;27.972;2023-03-01T13:48:26;10.43;;;8.40;;
6031;SDS011;3044;43.232;27.972;2023-03-01T13:50:57;12.03;;;9.40;;
6031;SDS011;3044;43.232;27.972;2023-03-01T13:53:29;11.50;;;9.50;;
6031;SDS011;3044;43.232;27.972;2023-03-01T13:56:00;12.50;;;9.80;;
6031;SDS011;3044;43.232;27.972;2023-03-01T13:58:33;20.83;;;11.83;;
6031;SDS011;3044;43.232;27.972;2023-03-01T14:01:20;13.90;;;9.70;;
6031;SDS011;3044;43.232;27.972;2023-03-01T14:03:50;18.33;;;9.33;;
6031;SDS011;3044;43.232;27.972;2023-03-01T14:06:19;12.33;;;8.60;;
6031;SDS011;3044;43.232;27.972;2023-03-01T14:08:48;13.83;;;8.90;;
6031;SDS011;3044;43.232;27.972;2023-03-01T14:11:25;10.67;;;8.40;;
6031;SDS011;3044;43.232;27.972;2023-03-01T14:14:19;12.10;;;8.57;;
6031;SDS011;3044;43.232;27.972;2023-03-01T14:17:20;93.87;;;50.20;;
6031;SDS011;3044;43.232;27.972;2023-03-01T14:20:09;51.23;;;31.33;;
6031;SDS011;3044;43.232;27.972;2023-03-01T14:22:41;18.17;;;12.57;;
6031;SDS011;3044;43.232;27.972;2023-03-01T14:25:23;11.33;;;8.33;;
6031;SDS011;3044;43.232;27.972;2023-03-01T14:27:56;13.80;;;8.70;;
6031;SDS011;3044;43.232;27.972;2023-03-01T14:30:30;12.90;;;9.20;;
6031;SDS011;3044;43.232;27.972;2023-03-01T14:33:02;11.60;;;9.13;;
6031;SDS011;3044;43.232;27.972;2023-03-01T14:35:32;12.20;;;8.73;;
6031;SDS011;3044;43.232;27.972;2023-03-01T14:38:01;13.23;;;8.60;;
6031;SDS011;3044;43.232;27.972;2023-03-01T14:40:29;10.27;;;8.80;;
6031;SDS011;3044;43.232;27.972;2023-03-01T14:42:58;14.13;;;9.20;;
6031;SDS011;3044;43.232;27.972;2023-03-01T14:45:28;12.10;;;8.40;;
6031;SDS011;3044;43.232;27.972;2023-03-01T14:47:58;13.83;;;9.10;;
6031;SDS011;3044;43.232;27.972;2023-03-01T14:50:29;13.63;;;9.30;;
6031;SDS011;3044;43.232;27.972;2023-03-01T14:52:58;9.07;;;8.17;;
6031;SDS011;3044;43.232;27.972;2023-03-01T14:55:29;10.17;;;8.17;;
6031;SDS011;3044;43.232;27.972;2023-03-01T14:58:00;17.80;;;9.73;;
6031;SDS011;3044;43.232;27.972;2023-03-01T15:00:31;13.30;;;9.77;;
6031;SDS011;3044;43.232;27.972;2023-03-01T15:03:01;15.40;;;10.43;;
6031;SDS011;3044;43.232;27.972;2023-03-01T15:05:36;12.20;;;9.03;;
6031;SDS011;3044;43.232;27.972;2023-03-01T15:08:03;12.23;;;9.20;;
6031;SDS011;3044;43.232;27.972;2023-03-01T15:10:32;18.93;;;9.27;;
6031;SDS011;3044;43.232;27.972;2023-03-01T15:13:09;16.37;;;8.83;;
6031;SDS011;3044;43.232;27.972;2023-03-01T15:15:38;18.90;;;8.33;;
6031;SDS011;3044;43.232;27.972;2023-03-01T15:18:13;12.83;;;8.93;;
6031;SDS011;3044;43.232;27.972;2023-03-01T15:20:44;13.17;;;9.50;;
6031;SDS011;3044;43.232;27.972;2023-03-01T15:23:22;11.83;;;8.40;;